Time;durP1;ratioP1;P1;durP2;ratioP2;P2;SDS_P1;SDS_P2;PMS_P1;PMS_P2;Temp;Humidity;BMP_temperature;BMP_pressure;BME280_temperature;BME280_humidity;BME280_pressure;Samples;Min_cycle;Max_cycle;Signal;HPM_P1;HPM_P2
2023/02/05 00:02:22;;;;;;;61.90;21.00;;;;;;;-0.11;100.00;101131.17;107382;1279;59160;-87
2023/02/05 00:04:48;;;;;;;57.50;21.10;;;;;;;-0.11;100.00;101132.77;107115;1282;74346;-86
2023/02/05 00:07:14;;;;;;;60.00;19.80;;;;;;;-0.10;100.00;101133.92;106882;1280;59694;-87
2023/02/05 00:09:39;;;;;;;57.20;18.30;;;;;;;-0.09;100.00;101136.66;107310;1280;59106;-86
2023/02/05 00:12:06;;;;;;;58.10;20.10;;;;;;;-0.10;100.00;101132.90;107159;1280;58990;-87
2023/02/05 00:14:32;;;;;;;60.10;19.40;;;;;;;-0.11;100.00;101134.95;107303;1280;59083;-87
2023/02/05 00:16:57;;;;;;;58.20;19.50;;;;;;;-0.13;100.00;101132.88;107333;1280;59014;-86
2023/02/05 00:19:23;;;;;;;61.20;21.00;;;;;;;-0.14;100.00;101131.89;107360;1280;59094;-87
2023/02/05 00:21:49;;;;;;;59.30;20.00;;;;;;;-0.13;100.00;101132.35;106829;1281;60968;-86
2023/02/05 00:24:14;;;;;;;57.40;20.00;;;;;;;-0.12;100.00;101134.73;107324;1280;59112;-87
2023/02/05 00:26:40;;;;;;;63.20;20.00;;;;;;;-0.12;100.00;101132.91;107326;1280;59113;-87
2023/02/05 00:29:06;;;;;;;54.10;18.20;;;;;;;-0.11;100.00;101136.88;107340;1280;59030;-86
2023/02/05 00:31:31;;;;;;;59.20;21.00;;;;;;;-0.09;100.00;101133.62;107338;1280;59105;-86
2023/02/05 00:33:57;;;;;;;58.50;19.60;;;;;;;-0.07;100.00;101135.14;107314;1280;61285;-86
2023/02/05 00:36:23;;;;;;;52.60;18.40;;;;;;;-0.07;100.00;101136.91;107340;1280;59099;-87
2023/02/05 00:38:49;;;;;;;56.50;18.80;;;;;;;-0.07;100.00;101141.87;107328;1280;59361;-86
2023/02/05 00:41:15;;;;;;;58.40;19.30;;;;;;;-0.08;100.00;101143.24;107351;1280;59117;-87
2023/02/05 00:43:41;;;;;;;58.80;17.80;;;;;;;-0.10;100.00;101144.23;107291;1280;58964;-86
2023/02/05 00:46:08;;;;;;;54.80;18.30;;;;;;;-0.12;100.00;101147.97;107335;1280;59017;-87
2023/02/05 00:48:33;;;;;;;55.10;16.80;;;;;;;-0.13;100.00;101149.27;107047;1280;59127;-87
2023/02/05 00:50:59;;;;;;;51.10;15.70;;;;;;;-0.14;100.00;101152.42;107299;1283;59210;-87
2023/02/05 00:53:25;;;;;;;50.80;17.40;;;;;;;-0.13;100.00;101153.73;106935;1283;59068;-87
2023/02/05 00:55:51;;;;;;;54.80;17.00;;;;;;;-0.13;100.00;101155.00;107331;1280;60793;-86
2023/02/05 00:58:16;;;;;;;59.30;18.80;;;;;;;-0.14;100.00;101155.48;107349;1280;59083;-87
2023/02/05 01:00:43;;;;;;;51.80;17.00;;;;;;;-0.16;100.00;101154.75;107357;1280;59044;-87
2023/02/05 01:03:08;;;;;;;52.80;17.80;;;;;;;-0.18;100.00;101152.19;107291;1282;59094;-87
2023/02/05 01:05:35;;;;;;;48.40;16.50;;;;;;;-0.20;100.00;101155.97;107318;1283;59031;-87
2023/02/05 01:08:01;;;;;;;50.10;16.40;;;;;;;-0.22;100.00;101156.67;107363;1281;59727;-86
2023/02/05 01:10:27;;;;;;;44.10;14.20;;;;;;;-0.26;100.00;101157.42;107331;1280;59002;-87
2023/02/05 01:12:52;;;;;;;38.40;13.10;;;;;;;-0.28;100.00;101160.91;107342;1280;59092;-87
2023/02/05 01:15:19;;;;;;;44.90;14.60;;;;;;;-0.29;100.00;101163.84;107365;1282;59428;-87
2023/02/05 01:17:45;;;;;;;42.60;13.90;;;;;;;-0.30;100.00;101165.45;107328;1282;59195;-86
2023/02/05 01:20:11;;;;;;;39.50;14.00;;;;;;;-0.28;100.00;101163.77;107308;1283;59432;-87
2023/02/05 01:22:37;;;;;;;38.60;13.30;;;;;;;-0.28;100.00;101168.13;107384;1280;59059;-86
2023/02/05 01:25:03;;;;;;;41.60;12.50;;;;;;;-0.29;100.00;101166.82;107308;1283;59457;-87
2023/02/05 01:27:31;;;;;;;39.70;12.80;;;;;;;-0.29;100.00;101168.10;107360;1280;59239;-87
2023/02/05 01:29:57;;;;;;;41.00;13.00;;;;;;;-0.30;100.00;101167.24;107378;1282;58963;-87
2023/02/05 01:32:22;;;;;;;38.70;12.70;;;;;;;-0.30;100.00;101166.63;107352;1280;59020;-87
2023/02/05 01:34:48;;;;;;;39.50;13.00;;;;;;;-0.31;100.00;101167.42;107312;1281;59046;-85
2023/02/05 01:37:13;;;;;;;38.60;12.30;;;;;;;-0.31;100.00;101168.72;107353;1280;59341;-87
2023/02/05 01:39:39;;;;;;;40.80;12.20;;;;;;;-0.32;100.00;101170.52;107352;1283;59000;-87
2023/02/05 01:42:19;;;;;;;35.60;11.50;;;;;;;-0.32;100.00;101174.98;107355;1280;59033;-87
2023/02/05 01:45:22;;;;;;;36.50;12.50;;;;;;;-0.31;100.00;101179.43;107319;1280;73403;-87
2023/02/05 01:48:00;;;;;;;36.80;13.10;;;;;;;-0.32;100.00;101182.77;106889;1283;71216;-87
2023/02/05 01:50:31;;;;;;;35.50;12.40;;;;;;;-0.33;100.00;101182.85;107150;1281;61827;-87
2023/02/05 01:52:59;;;;;;;36.60;12.20;;;;;;;-0.34;100.00;101182.73;107324;1280;60157;-87
2023/02/05 01:55:25;;;;;;;40.40;12.60;;;;;;;-0.33;100.00;101183.48;107312;1283;74518;-88
2023/02/05 01:57:52;;;;;;;36.60;11.70;;;;;;;-0.32;100.00;101182.00;106693;1280;59044;-87
2023/02/05 02:00:17;;;;;;;38.10;11.70;;;;;;;-0.33;100.00;101184.02;107322;1281;73395;-87
2023/02/05 02:02:43;;;;;;;37.10;11.90;;;;;;;-0.33;100.00;101185.66;106872;1280;59141;-87
2023/02/05 02:05:12;;;;;;;30.70;11.00;;;;;;;-0.35;100.00;101186.77;107216;1280;59081;-87
2023/02/05 02:07:38;;;;;;;39.30;11.70;;;;;;;-0.39;100.00;101187.20;107338;1281;75407;-87
2023/02/05 02:10:05;;;;;;;32.80;11.40;;;;;;;-0.41;100.00;101187.60;107315;1282;60154;-87
2023/02/05 02:12:33;;;;;;;33.80;11.50;;;;;;;-0.42;100.00;101189.55;107023;1282;59088;-87
2023/02/05 02:15:06;;;;;;;35.00;10.60;;;;;;;-0.43;100.00;101189.46;107135;1283;61750;-87
2023/02/05 02:17:38;;;;;;;35.40;12.30;;;;;;;-0.44;100.00;101191.02;107332;1280;60053;-87
2023/02/05 02:20:05;;;;;;;36.30;12.70;;;;;;;-0.46;100.00;101190.63;107334;1281;75471;-86
2023/02/05 02:22:49;;;;;;;36.60;12.70;;;;;;;-0.47;100.00;101193.52;107307;1282;74254;-87
2023/02/05 02:25:50;;;;;;;39.90;12.70;;;;;;;-0.47;100.00;101187.00;107302;1283;73347;-87
2023/02/05 02:28:26;;;;;;;36.80;11.90;;;;;;;-0.48;100.00;101191.20;107330;1282;61866;-87
2023/02/05 02:31:07;;;;;;;38.90;12.40;;;;;;;-0.50;100.00;101197.30;107343;1280;59938;-87
2023/02/05 02:33:32;;;;;;;33.20;11.70;;;;;;;-0.52;100.00;101199.78;107316;1282;75835;-87
2023/02/05 02:36:26;;;;;;;32.80;11.90;;;;;;;-0.54;100.00;101202.32;107360;1281;59053;-87
2023/02/05 02:39:04;;;;;;;34.40;12.30;;;;;;;-0.56;100.00;101202.05;107322;1280;72422;-87
2023/02/05 02:41:53;;;;;;;37.80;12.80;;;;;;;-0.58;100.00;101202.27;107325;1280;62902;-87
2023/02/05 02:44:39;;;;;;;35.70;11.70;;;;;;;-0.59;100.00;101207.83;107314;1284;59083;-86
2023/02/05 02:47:19;;;;;;;33.00;11.90;;;;;;;-0.61;100.00;101208.43;107323;1280;74470;-87
2023/02/05 02:50:08;;;;;;;37.10;12.60;;;;;;;-0.63;100.00;101209.83;107157;1280;73582;-87
2023/02/05 02:52:39;;;;;;;37.10;13.10;;;;;;;-0.65;100.00;101207.64;107312;1280;73432;-88
2023/02/05 02:55:10;;;;;;;38.50;13.80;;;;;;;-0.68;100.00;101208.45;107267;1280;62970;-87
2023/02/05 02:57:38;;;;;;;40.00;12.70;;;;;;;-0.71;100.00;101209.16;107315;1280;61003;-87
2023/02/05 03:00:28;;;;;;;35.80;12.40;;;;;;;-0.75;100.00;101209.76;107296;1280;75121;-87
2023/02/05 03:03:00;;;;;;;32.30;11.40;;;;;;;-0.80;100.00;101208.56;106698;1285;74326;-87
2023/02/05 03:05:27;;;;;;;36.30;12.30;;;;;;;-0.83;100.00;101208.86;106485;1285;72487;-87
2023/02/05 03:08:01;;;;;;;33.50;12.20;;;;;;;-0.83;100.00;101212.04;106724;1285;62545;-87
2023/02/05 03:10:43;;;;;;;35.40;12.40;;;;;;;-0.86;100.00;101212.61;106709;1285;61188;-87
2023/02/05 03:13:10;;;;;;;30.80;10.80;;;;;;;-0.88;100.00;101211.77;106754;1285;75485;-87
2023/02/05 03:15:41;;;;;;;37.90;12.70;;;;;;;-0.90;100.00;101213.20;106443;1285;73738;-86
2023/02/05 03:18:07;;;;;;;37.60;12.00;;;;;;;-0.95;100.00;101211.40;106771;1285;73547;-87
2023/02/05 03:20:40;;;;;;;32.40;11.30;;;;;;;-1.00;100.00;101215.89;106696;1285;59176;-86
2023/02/05 03:23:05;;;;;;;30.80;11.30;;;;;;;-1.06;100.00;101215.73;106733;1286;61033;-87
2023/02/05 03:25:31;;;;;;;33.10;11.70;;;;;;;-1.11;100.00;101219.00;106768;1285;59625;-86
2023/02/05 03:27:57;;;;;;;30.40;11.80;;;;;;;-1.12;100.00;101221.61;106731;1285;59181;-86
2023/02/05 03:30:31;;;;;;;29.60;10.90;;;;;;;-1.13;100.00;101220.66;106477;1285;59110;-86
2023/02/05 03:33:12;;;;;;;29.30;11.00;;;;;;;-1.16;100.00;101220.56;106705;1285;61818;-86
2023/02/05 03:36:06;;;;;;;30.80;10.50;;;;;;;-1.19;100.00;101226.06;106762;1285;61069;-86
2023/02/05 03:38:56;;;;;;;33.30;11.80;;;;;;;-1.23;100.00;101222.75;106715;1285;73505;-86
2023/02/05 03:44:25;;;;;;;36.60;12.00;;;;;;;-1.21;100.00;101222.88;107165;1281;71292;-87
2023/02/05 03:47:22;;;;;;;30.60;11.50;;;;;;;-1.22;100.00;101228.02;107147;1282;61828;-87
2023/02/05 03:50:23;;;;;;;35.60;14.20;;;;;;;-1.24;100.00;101227.69;106242;1290;61148;-86
2023/02/05 03:53:14;;;;;;;33.90;12.40;;;;;;;-1.28;100.00;101225.80;106210;1291;74303;-87
2023/02/05 03:55:50;;;;;;;37.10;13.40;;;;;;;-1.30;100.00;101229.71;106267;1290;74303;-86
2023/02/05 03:58:28;;;;;;;30.10;11.00;;;;;;;-1.31;100.00;101235.27;106173;1291;73493;-86
2023/02/05 04:00:53;;;;;;;34.80;11.90;;;;;;;-1.36;100.00;101234.83;106046;1291;60608;-86
2023/02/05 04:03:19;;;;;;;32.70;12.20;;;;;;;-1.41;100.00;101234.59;106246;1291;59216;-86
2023/02/05 04:05:44;;;;;;;41.10;12.80;;;;;;;-1.47;100.00;101234.02;106269;1291;59078;-86
2023/02/05 04:08:10;;;;;;;41.60;15.00;;;;;;;-1.53;100.00;101233.44;106187;1292;59153;-86
2023/02/05 04:10:36;;;;;;;43.50;15.30;;;;;;;-1.59;100.00;101236.73;106296;1290;59052;-86
2023/02/05 04:13:01;;;;;;;42.60;15.00;;;;;;;-1.63;100.00;101237.86;106219;1292;61004;-86
2023/02/05 04:15:27;;;;;;;44.90;16.30;;;;;;;-1.65;100.00;101247.10;106269;1291;59102;-86
2023/02/05 04:17:52;;;;;;;50.70;17.80;;;;;;;-1.68;100.00;101249.83;106298;1291;59436;-86
2023/02/05 04:20:18;;;;;;;49.90;17.70;;;;;;;-1.68;100.00;101246.70;106200;1291;59153;-86
2023/02/05 04:22:43;;;;;;;51.40;17.30;;;;;;;-1.71;100.00;101251.25;106267;1291;59200;-86
2023/02/05 04:25:09;;;;;;;43.00;17.00;;;;;;;-1.74;100.00;101250.16;106252;1290;75423;-86
2023/02/05 04:27:34;;;;;;;47.60;17.00;;;;;;;-1.75;100.00;101252.77;107189;1282;59098;-86
2023/02/05 04:30:00;;;;;;;47.90;16.70;;;;;;;-1.75;100.00;101251.84;107182;1283;59061;-86
2023/02/05 04:32:25;;;;;;;48.20;16.30;;;;;;;-1.74;100.00;101252.95;107227;1282;59046;-87
2023/02/05 04:34:50;;;;;;;57.90;19.00;;;;;;;-1.72;100.00;101253.14;107267;1282;59086;-86
2023/02/05 04:37:16;;;;;;;52.00;17.90;;;;;;;-1.65;100.00;101254.11;107230;1282;59106;-87
2023/02/05 04:39:41;;;;;;;52.90;18.90;;;;;;;-1.62;100.00;101259.09;107225;1282;59093;-86
2023/02/05 04:42:07;;;;;;;49.60;17.10;;;;;;;-1.60;100.00;101260.29;107258;1280;59384;-87
2023/02/05 04:44:32;;;;;;;50.20;18.10;;;;;;;-1.58;100.00;101265.15;107324;1280;59064;-86
2023/02/05 04:46:58;;;;;;;51.90;18.40;;;;;;;-1.55;100.00;101266.60;107369;1280;59037;-86
2023/02/05 04:49:24;;;;;;;69.50;21.40;;;;;;;-1.56;100.00;101269.73;107344;1280;59469;-86
2023/02/05 04:51:49;;;;;;;64.60;21.10;;;;;;;-1.54;100.00;101271.98;107314;1282;59111;-85
2023/02/05 04:54:15;;;;;;;78.70;25.30;;;;;;;-1.54;100.00;101272.45;107328;1283;59061;-85
2023/02/05 04:56:40;;;;;;;70.70;23.10;;;;;;;-1.50;100.00;101275.42;107323;1282;59069;-85
2023/02/05 04:59:06;;;;;;;74.60;23.30;;;;;;;-1.49;100.00;101278.99;107370;1283;59886;-86
2023/02/05 05:01:31;;;;;;;73.80;23.10;;;;;;;-1.47;100.00;101280.33;107306;1282;61782;-85
2023/02/05 05:03:57;;;;;;;61.00;18.80;;;;;;;-1.44;100.00;101284.12;107326;1283;59192;-86
2023/02/05 05:06:22;;;;;;;60.30;19.30;;;;;;;-1.42;100.00;101285.84;107351;1280;59148;-85
2023/02/05 05:08:48;;;;;;;59.20;19.50;;;;;;;-1.39;100.00;101289.52;107330;1283;59224;-85
2023/02/05 05:11:17;;;;;;;56.60;19.60;;;;;;;-1.34;100.00;101289.02;107349;1280;59041;-85
2023/02/05 05:13:43;;;;;;;56.80;20.30;;;;;;;-1.28;100.00;101289.42;107203;1280;60131;-85
2023/02/05 05:16:10;;;;;;;53.00;18.80;;;;;;;-1.23;100.00;101290.81;107343;1283;59358;-85
2023/02/05 05:18:36;;;;;;;52.30;17.80;;;;;;;-1.18;100.00;101293.66;107156;1282;74102;-85
2023/02/05 05:21:03;;;;;;;50.60;18.50;;;;;;;-1.13;100.00;101294.02;106792;1283;59250;-85
2023/02/05 05:23:28;;;;;;;51.40;16.90;;;;;;;-1.08;100.00;101296.79;107017;1283;59072;-86
2023/02/05 05:25:54;;;;;;;50.60;17.10;;;;;;;-1.05;100.00;101296.98;107298;1282;59077;-85
2023/02/05 05:28:20;;;;;;;46.80;15.90;;;;;;;-1.03;100.00;101298.55;107374;1282;59076;-85
2023/02/05 05:30:46;;;;;;;53.10;17.10;;;;;;;-1.00;100.00;101300.30;107318;1282;59059;-86
2023/02/05 05:33:12;;;;;;;49.20;17.30;;;;;;;-0.96;100.00;101303.27;107298;1282;59422;-86
2023/02/05 05:35:38;;;;;;;54.50;19.60;;;;;;;-0.94;100.00;101301.48;106842;1282;59127;-85
2023/02/05 05:38:04;;;;;;;57.50;19.80;;;;;;;-0.92;100.00;101304.06;107405;1282;59167;-85
2023/02/05 05:46:01;;;;;;;53.70;18.80;;;;;;;-0.81;100.00;101318.23;107288;1283;61773;-85
2023/02/05 05:48:27;;;;;;;63.10;20.00;;;;;;;-0.80;100.00;101319.22;107342;1282;59349;-85
2023/02/05 05:50:53;;;;;;;75.70;23.40;;;;;;;-0.78;100.00;101320.52;107334;1280;59207;-85
2023/02/05 05:53:19;;;;;;;73.30;23.00;;;;;;;-0.72;100.00;101324.20;107059;1281;59111;-85
2023/02/05 05:55:48;;;;;;;74.60;24.40;;;;;;;-0.68;100.00;101325.42;107345;1280;59031;-85
2023/02/05 05:58:13;;;;;;;75.10;23.40;;;;;;;-0.67;100.00;101328.84;107321;1282;61568;-85
2023/02/05 06:00:39;;;;;;;77.90;24.50;;;;;;;-0.68;100.00;101326.15;107405;1280;59457;-85
2023/02/05 06:03:05;;;;;;;77.20;24.10;;;;;;;-0.66;100.00;101331.65;107333;1280;59257;-85
2023/02/05 06:05:32;;;;;;;71.70;22.50;;;;;;;-0.65;100.00;101334.98;106886;1283;59305;-85
2023/02/05 06:07:58;;;;;;;69.30;21.80;;;;;;;-0.61;100.00;101338.64;107352;1280;59154;-85
2023/02/05 06:10:24;;;;;;;65.80;21.70;;;;;;;-0.56;100.00;101340.40;106881;1283;59149;-85
2023/02/05 06:12:51;;;;;;;61.30;20.90;;;;;;;-0.48;100.00;101345.42;107205;1280;59112;-85
2023/02/05 06:15:18;;;;;;;59.00;20.60;;;;;;;-0.40;100.00;101347.84;107309;1280;59047;-85
2023/02/05 06:17:43;;;;;;;53.90;18.20;;;;;;;-0.33;100.00;101347.93;107353;1280;58998;-84
2023/02/05 06:20:09;;;;;;;60.50;19.60;;;;;;;-0.27;100.00;101349.86;106745;1284;59098;-85
2023/02/05 06:22:35;;;;;;;54.50;18.70;;;;;;;-0.21;100.00;101349.78;107417;1280;59459;-85
2023/02/05 06:25:01;;;;;;;59.40;20.20;;;;;;;-0.12;100.00;101356.54;107343;1280;75112;-85
2023/02/05 06:27:27;;;;;;;59.10;18.70;;;;;;;-0.06;100.00;101352.41;107374;1280;59051;-85
2023/02/05 06:29:52;;;;;;;48.20;16.00;;;;;;;-0.04;100.00;101353.86;106845;1280;59164;-85
2023/02/05 06:32:18;;;;;;;48.40;16.30;;;;;;;-0.01;100.00;101356.53;107316;1280;59000;-85
2023/02/05 06:34:44;;;;;;;47.20;17.80;;;;;;;0.01;100.00;101357.42;107326;1280;59450;-85
2023/02/05 06:37:09;;;;;;;42.40;15.10;;;;;;;0.05;100.00;101365.24;107381;1283;59048;-85
2023/02/05 06:39:35;;;;;;;38.80;12.70;;;;;;;0.09;100.00;101370.96;107346;1280;73160;-84
2023/02/05 06:42:00;;;;;;;36.80;13.00;;;;;;;0.08;100.00;101371.93;107351;1280;59140;-85
2023/02/05 06:44:26;;;;;;;43.00;14.30;;;;;;;0.06;100.00;101372.37;107369;1280;59028;-85
2023/02/05 06:46:51;;;;;;;38.50;13.90;;;;;;;0.04;100.00;101372.09;107286;1280;59060;-85
2023/02/05 06:49:17;;;;;;;41.60;14.30;;;;;;;-0.00;100.00;101374.65;107370;1280;59407;-85
2023/02/05 06:51:43;;;;;;;35.60;12.90;;;;;;;0.01;100.00;101376.34;106880;1280;62805;-85
2023/02/05 06:54:09;;;;;;;38.80;14.30;;;;;;;0.04;100.00;101381.13;107329;1280;59043;-85
2023/02/05 06:56:34;;;;;;;38.80;14.10;;;;;;;0.03;100.00;101380.95;107156;1280;59055;-86
2023/02/05 06:59:00;;;;;;;44.80;15.20;;;;;;;0.08;100.00;101377.60;107340;1280;59071;-86
2023/02/05 07:01:25;;;;;;;41.70;14.00;;;;;;;0.15;100.00;101378.59;107339;1280;59027;-86
2023/02/05 07:03:54;;;;;;;45.40;15.20;;;;;;;0.19;100.00;101381.10;106808;1280;60149;-86
2023/02/05 07:06:24;;;;;;;45.10;15.50;;;;;;;0.22;100.00;101377.04;107330;1281;75381;-87
2023/02/05 07:08:50;;;;;;;49.10;17.20;;;;;;;0.33;100.00;101375.36;106949;1280;73429;-86
2023/02/05 07:11:16;;;;;;;43.80;15.30;;;;;;;0.39;100.00;101379.61;107326;1280;59878;-87
2023/02/05 07:13:41;;;;;;;48.60;15.20;;;;;;;0.48;100.00;101380.00;107335;1280;59060;-87
2023/02/05 07:16:07;;;;;;;43.10;14.40;;;;;;;0.52;100.00;101380.69;107316;1282;59013;-86
2023/02/05 07:18:33;;;;;;;37.20;12.80;;;;;;;0.55;100.00;101383.73;106946;1280;59244;-87
2023/02/05 07:20:59;;;;;;;32.90;11.70;;;;;;;0.58;100.00;101381.33;107421;1280;59103;-87
2023/02/05 07:23:25;;;;;;;29.20;11.50;;;;;;;0.61;100.00;101378.95;106815;1285;61984;-87
2023/02/05 07:25:50;;;;;;;26.80;10.00;;;;;;;0.70;100.00;101382.06;107357;1280;59007;-87
2023/02/05 07:28:16;;;;;;;28.60;10.30;;;;;;;0.65;100.00;101381.09;107101;1280;59121;-87
2023/02/05 07:30:42;;;;;;;31.60;11.50;;;;;;;0.67;100.00;101382.08;106858;1280;59121;-86
2023/02/05 07:33:08;;;;;;;35.00;12.70;;;;;;;0.73;100.00;101382.24;107302;1280;59100;-87
2023/02/05 07:35:36;;;;;;;30.70;11.00;;;;;;;0.81;100.00;101381.17;107343;1280;58951;-87
2023/02/05 07:38:02;;;;;;;26.20;10.80;;;;;;;0.87;100.00;101379.96;106855;1280;75262;-87
2023/02/05 07:40:28;;;;;;;33.20;12.00;;;;;;;0.93;100.00;101378.92;107351;1280;59087;-88
2023/02/05 07:42:53;;;;;;;30.20;10.50;;;;;;;0.93;100.00;101377.00;107305;1280;59081;-86
2023/02/05 07:45:19;;;;;;;36.20;11.20;;;;;;;0.89;100.00;101380.20;107348;1280;59376;-87
2023/02/05 07:47:44;;;;;;;31.90;11.90;;;;;;;0.95;100.00;101382.52;107346;1280;59046;-87
2023/02/05 07:50:10;;;;;;;30.10;11.00;;;;;;;1.00;100.00;101383.10;107421;1280;59244;-88
2023/02/05 07:52:35;;;;;;;37.90;11.40;;;;;;;0.99;100.00;101384.02;107147;1280;59075;-88
2023/02/05 07:55:01;;;;;;;30.60;12.10;;;;;;;1.07;100.00;101385.55;107178;1280;58977;-87
2023/02/05 07:57:26;;;;;;;32.70;12.20;;;;;;;1.26;100.00;101387.23;106871;1283;59299;-88
2023/02/05 07:59:52;;;;;;;28.10;11.80;;;;;;;1.32;100.00;101386.38;106990;1283;59096;-88
2023/02/05 08:02:18;;;;;;;26.80;10.20;;;;;;;1.31;100.00;101381.78;107034;1283;59110;-87
2023/02/05 08:04:43;;;;;;;30.00;11.60;;;;;;;1.25;100.00;101387.44;106952;1283;59330;-88
2023/02/05 08:07:13;;;;;;;36.70;14.70;;;;;;;1.21;100.00;101388.73;107041;1283;59962;-88
2023/02/05 08:09:38;;;;;;;38.40;14.60;;;;;;;1.29;100.00;101391.72;106967;1283;75507;-88
2023/02/05 08:12:04;;;;;;;45.30;16.70;;;;;;;1.37;100.00;101393.69;106999;1283;59612;-88
2023/02/05 08:14:30;;;;;;;27.60;9.90;;;;;;;1.45;100.00;101395.70;106914;1284;59145;-87
2023/02/05 08:16:57;;;;;;;27.70;11.50;;;;;;;1.63;100.00;101395.70;106981;1283;59000;-87
2023/02/05 08:19:23;;;;;;;25.20;9.90;;;;;;;1.72;100.00;101395.21;106959;1283;59073;-88
2023/02/05 08:21:49;;;;;;;26.70;9.80;;;;;;;1.73;100.00;101396.22;107058;1285;59084;-88
2023/02/05 08:24:15;;;;;;;28.00;9.70;;;;;;;1.78;100.00;101396.21;107000;1283;59193;-88
2023/02/05 08:26:41;;;;;;;23.70;9.60;;;;;;;1.89;100.00;101401.14;106995;1283;59511;-88
2023/02/05 08:29:07;;;;;;;25.50;10.70;;;;;;;1.96;100.00;101403.66;107288;1280;58987;-88
2023/02/05 08:31:34;;;;;;;20.70;8.50;;;;;;;1.99;100.00;101405.02;106715;1280;75348;-88
2023/02/05 08:33:59;;;;;;;25.60;10.00;;;;;;;2.05;100.00;101403.66;107354;1280;75038;-88
2023/02/05 08:36:25;;;;;;;26.00;9.60;;;;;;;2.06;100.00;101400.64;107338;1280;59083;-88
2023/02/05 08:38:50;;;;;;;26.90;11.10;;;;;;;2.07;100.00;101400.17;107294;1280;58947;-87
2023/02/05 08:41:16;;;;;;;24.50;9.80;;;;;;;2.19;100.00;101403.16;107378;1280;59391;-87
2023/02/05 08:43:44;;;;;;;23.10;9.70;;;;;;;2.22;100.00;101405.20;107389;1280;60179;-86
2023/02/05 08:46:12;;;;;;;25.20;10.10;;;;;;;2.34;100.00;101404.28;107301;1282;72714;-86
2023/02/05 08:48:38;;;;;;;21.40;9.00;;;;;;;2.51;100.00;101400.08;107327;1280;60264;-86
2023/02/05 08:51:04;;;;;;;23.50;8.90;;;;;;;2.63;100.00;101403.50;107386;1280;59064;-86
2023/02/05 08:53:32;;;;;;;22.70;9.20;;;;;;;2.70;100.00;101406.36;107334;1280;58969;-85
2023/02/05 08:56:01;;;;;;;16.80;6.90;;;;;;;2.76;100.00;101407.89;106933;1280;74112;-85
2023/02/05 08:58:27;;;;;;;16.00;6.40;;;;;;;2.89;100.00;101408.35;107348;1280;72215;-85
2023/02/05 09:00:59;;;;;;;19.00;7.20;;;;;;;2.95;100.00;101408.64;107346;1280;58980;-86
2023/02/05 09:03:25;;;;;;;15.90;6.80;;;;;;;2.87;100.00;101407.39;106799;1280;61360;-85
2023/02/05 09:05:51;;;;;;;14.40;6.20;;;;;;;2.80;100.00;101409.66;107314;1280;59091;-86
2023/02/05 09:08:16;;;;;;;17.70;7.30;;;;;;;2.81;100.00;101409.98;107363;1280;59098;-85
2023/02/05 09:10:43;;;;;;;11.80;5.10;;;;;;;2.89;100.00;101409.31;106906;1280;59131;-85
2023/02/05 09:13:09;;;;;;;12.70;5.70;;;;;;;2.84;100.00;101407.00;107318;1280;59579;-85
2023/02/05 09:15:42;;;;;;;16.10;6.50;;;;;;;2.87;100.00;101408.82;106767;1280;59189;-85
2023/02/05 09:18:08;;;;;;;17.50;7.30;;;;;;;2.84;100.00;101405.84;107350;1281;75940;-85
2023/02/05 09:20:33;;;;;;;18.70;7.60;;;;;;;2.90;100.00;101402.31;107354;1280;59038;-85
2023/02/05 09:22:59;;;;;;;23.10;9.00;;;;;;;2.91;100.00;101405.39;107323;1280;59464;-85
2023/02/05 09:25:26;;;;;;;26.10;10.60;;;;;;;2.81;100.00;101407.70;107327;1280;59125;-85
2023/02/05 09:27:52;;;;;;;35.00;12.40;;;;;;;2.53;100.00;101411.11;107189;1282;59001;-84
2023/02/05 09:30:17;;;;;;;31.70;13.00;;;;;;;2.37;100.00;101415.17;107314;1280;59130;-85
2023/02/05 09:32:43;;;;;;;27.40;10.50;;;;;;;2.14;100.00;101416.55;106995;1280;59247;-85
2023/02/05 09:35:09;;;;;;;29.50;12.10;;;;;;;2.05;100.00;101418.90;107351;1280;62165;-85
2023/02/05 09:37:34;;;;;;;23.80;9.10;;;;;;;1.87;100.00;101422.49;107362;1280;59055;-85
2023/02/05 09:40:00;;;;;;;22.60;9.30;;;;;;;1.63;100.00;101422.98;107024;1280;59407;-85
2023/02/05 09:42:32;;;;;;;26.20;10.10;;;;;;;1.36;100.00;101427.00;107411;1280;59425;-86
2023/02/05 09:45:06;;;;;;;21.50;8.90;;;;;;;1.23;100.00;101424.95;107341;1280;73707;-85
2023/02/05 09:47:45;;;;;;;23.10;9.40;;;;;;;1.20;100.00;101422.52;107222;1280;61751;-84
2023/02/05 09:50:24;;;;;;;23.20;9.00;;;;;;;1.21;100.00;101426.10;107194;1280;60989;-85
2023/02/05 09:52:52;;;;;;;19.30;7.50;;;;;;;1.34;100.00;101430.27;107188;1280;75420;-85
2023/02/05 09:55:26;;;;;;;18.50;8.00;;;;;;;1.40;100.00;101430.25;106512;1285;72765;-85
2023/02/05 09:57:55;;;;;;;16.60;7.30;;;;;;;1.46;100.00;101427.66;106430;1285;73413;-85
2023/02/05 10:00:28;;;;;;;19.30;8.30;;;;;;;1.48;100.00;101430.04;106664;1285;61828;-85
2023/02/05 10:03:17;;;;;;;20.60;8.50;;;;;;;1.60;100.00;101428.27;106757;1285;59947;-85
2023/02/05 10:05:51;;;;;;;23.60;9.80;;;;;;;1.67;100.00;101425.02;106437;1285;74138;-84
2023/02/05 10:08:28;;;;;;;20.80;8.20;;;;;;;1.72;100.00;101424.23;106709;1285;73168;-85
2023/02/05 10:10:56;;;;;;;20.00;7.80;;;;;;;1.75;100.00;101424.44;106731;1285;71556;-84
2023/02/05 10:13:56;;;;;;;22.90;9.20;;;;;;;1.94;100.00;101422.73;106695;1285;59891;-84
2023/02/05 10:16:30;;;;;;;19.10;7.60;;;;;;;2.07;100.00;101423.29;105884;1292;256106;-84
2023/02/05 10:19:18;;;;;;;17.60;7.90;;;;;;;1.97;100.00;101422.99;106064;1292;75406;-85
2023/02/05 10:21:57;;;;;;;17.90;7.00;;;;;;;1.81;100.00;101421.92;105563;1299;73383;-85
2023/02/05 10:24:41;;;;;;;18.50;8.00;;;;;;;1.75;100.00;101423.98;105401;1299;72553;-85
2023/02/05 10:27:09;;;;;;;24.40;9.80;;;;;;;1.89;100.00;101424.53;105824;1295;62074;-85
2023/02/05 10:30:03;;;;;;;23.70;9.40;;;;;;;1.82;100.00;101426.20;105907;1295;60984;-84
2023/02/05 10:32:47;;;;;;;27.40;9.60;;;;;;;1.73;100.00;101428.95;105893;1294;74513;-85
2023/02/05 10:35:18;;;;;;;;;;;;;;;1.75;100.00;101433.38;105914;1294;74095;-85
2023/02/05 10:37:51;;;;;;;25.20;10.30;;;;;;;1.77;100.00;101430.27;105911;1295;72540;-85
2023/02/05 10:40:22;;;;;;;31.10;11.10;;;;;;;1.91;100.00;101429.46;105862;1295;62002;-85
2023/02/05 10:43:17;;;;;;;24.80;10.20;;;;;;;2.01;100.00;101428.15;105779;1296;59407;-85
2023/02/05 10:45:43;;;;;;;23.30;9.60;;;;;;;1.97;100.00;101429.19;105907;1296;75684;-85
2023/02/05 10:48:21;;;;;;;29.80;11.00;;;;;;;1.92;100.00;101423.98;105897;1295;59548;-85
2023/02/05 10:51:04;;;;;;;24.30;10.00;;;;;;;1.98;100.00;101429.36;105857;1295;73419;-84
2023/02/05 10:53:31;;;;;;;21.80;9.50;;;;;;;2.11;100.00;101426.35;106146;1288;62003;-85
2023/02/05 10:56:00;;;;;;;22.10;9.20;;;;;;;2.26;100.00;101428.84;106157;1288;60836;-86
2023/02/05 10:58:35;;;;;;;24.50;9.20;;;;;;;2.53;100.00;101429.09;106485;1281;75485;-85
2023/02/05 11:01:02;;;;;;;17.90;6.60;;;;;;;2.77;100.00;101427.92;107252;1282;74315;-86
2023/02/05 11:03:28;;;;;;;13.80;6.10;;;;;;;2.98;100.00;101422.00;107224;1281;59106;-86
2023/02/05 11:05:53;;;;;;;13.90;6.10;;;;;;;3.22;100.00;101423.02;107077;1283;59043;-86
2023/02/05 11:08:37;;;;;;;15.30;6.50;;;;;;;3.32;100.00;101426.23;107068;1281;59088;-86
2023/02/05 11:11:04;;;;;;;16.50;7.20;;;;;;;3.21;100.00;101422.26;107082;1283;75286;-85
2023/02/05 11:13:30;;;;;;;14.50;6.50;;;;;;;3.17;100.00;101420.94;107160;1281;73616;-86
2023/02/05 11:16:02;;;;;;;11.90;5.80;;;;;;;3.30;100.00;101420.85;107143;1282;58960;-86
2023/02/05 11:18:34;;;;;;;16.30;7.50;;;;;;;3.53;100.00;101419.37;107231;1281;61022;-87